Time;durP1;ratioP1;P1;durP2;ratioP2;P2;SDS_P1;SDS_P2;PMS_P1;PMS_P2;Temp;Humidity;BMP_temperature;BMP_pressure;BME280_temperature;BME280_humidity;BME280_pressure;Samples;Min_cycle;Max_cycle;Signal;HPM_P1;HPM_P2
2023/10/27 00:05:21;;;;;;;;;;;;;;;;;;5046905;27;19951;-45
2023/10/27 00:07:47;;;;;;;;;;;;;;;;;;5026365;28;19975;-45
2023/10/27 00:10:14;;;;;;;;;;;;;;;;;;5026575;28;20788;-44
2023/10/27 00:12:40;;;;;;;;;;;;;;;;;;5019849;28;19949;-44
2023/10/27 00:15:06;;;;;;;;;;;;;;;;;;5023823;28;19925;-44
2023/10/27 00:17:32;;;;;;;;;;;;;;;;;;5027680;28;20801;-44
2023/10/27 00:19:58;;;;;;;;;;;;;;;;;;5025861;28;19921;-45
2023/10/27 00:22:25;;;;;;;;;;;;;;;;;;5025278;28;19925;-49
2023/10/27 00:24:51;;;;;;;;;;;;;;;;;;5028641;28;20652;-47
2023/10/27 00:27:18;;;;;;;;;;;;;;;;;;5029845;28;19981;-44
2023/10/27 00:29:44;;;;;;;;;;;;;;;;;;5025132;28;20384;-44
2023/10/27 00:32:10;;;;;;;;;;;;;;;;;;5024565;28;19987;-44
2023/10/27 00:34:36;;;;;;;;;;;;;;;;;;5025703;28;19926;-45
2023/10/27 00:37:03;;;;;;;;;;;;;;;;;;5029139;28;19921;-43
2023/10/27 00:39:29;;;;;;;;;;;;;;;;;;5027747;28;19921;-43
2023/10/27 00:41:55;;;;;;;;;;;;;;;;;;5030472;28;20820;-43
2023/10/27 00:44:21;;;;;;;;;;;;;;;;;;5028986;28;20630;-42
2023/10/27 00:46:47;;;;;;;;;;;;;;;;;;5024577;28;19921;-44
2023/10/27 00:49:14;;;;;;;;;;;;;;;;;;5025106;28;20381;-44
2023/10/27 00:51:40;;;;;;;;;;;;;;;;;;5024452;28;21179;-44
2023/10/27 00:54:06;;;;;;;;;;;;;;;;;;5022047;28;19925;-44
2023/10/27 00:56:32;;;;;;;;;;;;;;;;;;5025908;28;20023;-41
2023/10/27 00:58:58;;;;;;;;;;;;;;;;;;5024620;28;19925;-41
2023/10/27 04:58:12;;;;;;;;;;;;;;;;;;5037308;27;20323;-44
2023/10/27 05:00:37;;;;;;;;;;;;;;;;;;5035490;28;19932;-44
2023/10/27 05:03:03;;;;;;;;;;;;;;;;;;5039118;28;19940;-56
2023/10/27 05:05:28;;;;;;;;;;;;;;;;;;5021123;28;19925;-48
2023/10/27 05:07:55;;;;;;;;;;;;;;;;;;5021863;28;19921;-45
2023/10/27 05:10:21;;;;;;;;;;;;;;;;;;5037988;28;64984;-48
2023/10/27 05:12:46;;;;;;;;;;;;;;;;;;5047982;28;19994;-44
2023/10/27 05:15:12;;;;;;;;;;;;;;;;;;5046592;28;20053;-44
2023/10/27 05:17:37;;;;;;;;;;;;;;;;;;5045671;28;20556;-47
2023/10/27 05:20:03;;;;;;;;;;;;;;;;;;5045359;28;20055;-45
2023/10/27 05:22:28;;;;;;;;;;;;;;;;;;5045265;28;19991;-45
2023/10/27 05:24:53;;;;;;;;;;;;;;;;;;5045340;28;19932;-50
2023/10/27 05:27:19;;;;;;;;;;;;;;;;;;5046358;28;19928;-49
2023/10/27 05:29:44;;;;;;;;;;;;;;;;;;5045451;28;20315;-47
2023/10/27 05:32:12;;;;;;;;;;;;;;;;;;5046222;28;19931;-47
2023/10/27 05:34:37;;;;;;;;;;;;;;;;;;5044652;28;19924;-46
2023/10/27 05:37:03;;;;;;;;;;;;;;;;;;5044844;28;19975;-47
2023/10/27 05:39:28;;;;;;;;;;;;;;;;;;5045543;28;19975;-48
2023/10/27 05:41:54;;;;;;;;;;;;;;;;;;5045563;28;19999;-50
2023/10/27 05:44:19;;;;;;;;;;;;;;;;;;5044648;28;20064;-51
2023/10/27 05:46:45;;;;;;;;;;;;;;;;;;5045065;28;20362;-48
2023/10/27 05:49:10;;;;;;;;;;;;;;;;;;5045677;28;20301;-54
2023/10/27 05:51:36;;;;;;;;;;;;;;;;;;5044956;28;20012;-50
2023/10/27 05:54:01;;;;;;;;;;;;;;;;;;5045447;28;20403;-49
2023/10/27 05:56:27;;;;;;;;;;;;;;;;;;5044083;28;19932;-50
2023/10/27 05:58:52;;;;;;;;;;;;;;;;;;5060306;28;20433;-48
2023/10/27 06:01:19;;;;;;;;;;;;;;;;;;5045553;28;20011;-50
2023/10/27 06:03:44;;;;;;;;;;;;;;;;;;5044557;28;19925;-50
2023/10/27 06:06:10;;;;;;;;;;;;;;;;;;5045682;28;20299;-49
2023/10/27 06:08:41;;;;;;;;;;;;;;;;;;5036875;28;20263;-48
2023/10/27 06:11:06;;;;;;;;;;;;;;;;;;5032050;28;19925;-48
2023/10/27 06:13:31;;;;;;;;;;;;;;;;;;5031139;28;19927;-50
2023/10/27 06:15:57;;;;;;;;;;;;;;;;;;5032172;28;19925;-53
2023/10/27 06:18:22;;;;;;;;;;;;;;;;;;5031671;28;20012;-49
2023/10/27 06:20:48;;;;;;;;;;;;;;;;;;5029574;28;19925;-48
2023/10/27 06:23:13;;;;;;;;;;;;;;;;;;5031107;28;19925;-47
2023/10/27 06:25:38;;;;;;;;;;;;;;;;;;5030906;28;19974;-45
2023/10/27 06:28:04;;;;;;;;;;;;;;;;;;5031815;28;19979;-45
2023/10/27 06:30:29;;;;;;;;;;;;;;;;;;5030866;28;19921;-47
2023/10/27 06:32:55;;;;;;;;;;;;;;;;;;5031534;28;20597;-49
2023/10/27 06:35:20;;;;;;;;;;;;;;;;;;5030797;28;19936;-46
2023/10/27 06:37:45;;;;;;;;;;;;;;;;;;5030150;28;19933;-46
2023/10/27 06:40:11;;;;;;;;;;;;;;;;;;5031707;28;19932;-44
2023/10/27 06:42:36;;;;;;;;;;;;;;;;;;5030944;28;19968;-45
2023/10/27 06:45:03;;;;;;;;;;;;;;;;;;5031019;28;20542;-45
2023/10/27 06:47:29;;;;;;;;;;;;;;;;;;5030606;28;19928;-45
2023/10/27 06:49:54;;;;;;;;;;;;;;;;;;5031165;28;19928;-46
2023/10/27 06:52:19;;;;;;;;;;;;;;;;;;5030914;28;19983;-46
2023/10/27 06:54:46;;;;;;;;;;;;;;;;;;5029815;28;19921;-48
2023/10/27 06:57:11;;;;;;;;;;;;;;;;;;5030179;28;19940;-49
2023/10/27 06:59:37;;;;;;;;;;;;;;;;;;5030417;28;19980;-48
2023/10/27 07:02:03;;;;;;;;;;;;;;;;;;5030749;28;20616;-46
2023/10/27 07:04:28;;;;;;;;;;;;;;;;;;5029790;28;19921;-46
2023/10/27 07:06:54;;;;;;;;;;;;;;;;;;5030281;28;19931;-46
2023/10/27 07:09:19;;;;;;;;;;;;;;;;;;5030683;28;19921;-45
2023/10/27 07:11:45;;;;;;;;;;;;;;;;;;5030234;28;19967;-45
2023/10/27 07:14:13;;;;;;;;;;;;;;;;;;5030136;28;19932;-45
2023/10/27 07:16:38;;;;;;;;;;;;;;;;;;5029588;28;19972;-47
2023/10/27 07:19:04;;;;;;;;;;;;;;;;;;5030899;28;20039;-47
2023/10/27 07:21:29;;;;;;;;;;;;;;;;;;5028880;28;20449;-46
2023/10/27 07:23:54;;;;;;;;;;;;;;;;;;5029844;28;19925;-47
2023/10/27 07:26:20;;;;;;;;;;;;;;;;;;5031256;28;19925;-45
2023/10/27 07:28:45;;;;;;;;;;;;;;;;;;5029984;28;20293;-45
2023/10/27 07:31:11;;;;;;;;;;;;;;;;;;5029977;28;19925;-48
2023/10/27 07:33:38;;;;;;;;;;;;;;;;;;5029241;28;19974;-49
2023/10/27 07:36:04;;;;;;;;;;;;;;;;;;5029994;28;19976;-52
2023/10/27 07:38:30;;;;;;;;;;;;;;;;;;5029352;28;20016;-52
2023/10/27 07:40:55;;;;;;;;;;;;;;;;;;5030502;28;20094;-56
2023/10/27 07:43:21;;;;;;;;;;;;;;;;;;5029666;28;20248;-56
2023/10/27 07:45:47;;;;;;;;;;;;;;;;;;5028414;28;19927;-55
2023/10/27 07:48:12;;;;;;;;;;;;;;;;;;5029785;28;19925;-53
2023/10/27 07:50:39;;;;;;;;;;;;;;;;;;5029615;28;19936;-54
2023/10/27 07:53:04;;;;;;;;;;;;;;;;;;5029257;28;19921;-50
2023/10/27 07:55:30;;;;;;;;;;;;;;;;;;5030088;28;19994;-51
2023/10/27 07:57:55;;;;;;;;;;;;;;;;;;5029378;28;20258;-52
2023/10/27 08:00:21;;;;;;;;;;;;;;;;;;5030160;28;20002;-50
2023/10/27 08:02:47;;;;;;;;;;;;;;;;;;5028368;28;19920;-50
2023/10/27 08:05:12;;;;;;;;;;;;;;;;;;5029394;28;20325;-51
2023/10/27 08:07:38;;;;;;;;;;;;;;;;;;5029093;28;19944;-50
2023/10/27 08:10:07;;;;;;;;;;;;;;;;;;5029362;28;19925;-50
2023/10/27 08:12:32;;;;;;;;;;;;;;;;;;5029369;28;20002;-50
2023/10/27 08:14:58;;;;;;;;;;;;;;;;;;5029087;28;19932;-49
2023/10/27 08:17:23;;;;;;;;;;;;;;;;;;5029043;28;19935;-54
2023/10/27 08:19:48;;;;;;;;;;;;;;;;;;5029329;28;19924;-49
2023/10/27 08:22:14;;;;;;;;;;;;;;;;;;5029346;28;19921;-51
2023/10/27 08:24:39;;;;;;;;;;;;;;;;;;5028192;28;19928;-48
2023/10/27 08:27:05;;;;;;;;;;;;;;;;;;5029723;28;20435;-48
2023/10/27 08:29:30;;;;;;;;;;;;;;;;;;5028143;28;20425;-48
2023/10/27 08:31:56;;;;;;;;;;;;;;;;;;5028521;28;19928;-49
2023/10/27 08:34:21;;;;;;;;;;;;;;;;;;5028616;28;19921;-49
2023/10/27 08:36:47;;;;;;;;;;;;;;;;;;5028674;28;19971;-51
2023/10/27 08:39:12;;;;;;;;;;;;;;;;;;5029867;28;19925;-52
2023/10/27 08:41:38;;;;;;;;;;;;;;;;;;5028651;28;20043;-50
2023/10/27 08:44:03;;;;;;;;;;;;;;;;;;5028749;28;20920;-53
2023/10/27 08:46:29;;;;;;;;;;;;;;;;;;5028790;28;21143;-54
2023/10/27 08:48:55;;;;;;;;;;;;;;;;;;5029150;28;20474;-52
2023/10/27 08:51:20;;;;;;;;;;;;;;;;;;5029436;28;20365;-49
2023/10/27 08:53:46;;;;;;;;;;;;;;;;;;5028088;28;19921;-48
2023/10/27 08:56:12;;;;;;;;;;;;;;;;;;5028890;28;19932;-49
2023/10/27 08:58:38;;;;;;;;;;;;;;;;;;5027953;28;19941;-49
2023/10/27 09:01:04;;;;;;;;;;;;;;;;;;5028993;28;20514;-51
2023/10/27 09:03:29;;;;;;;;;;;;;;;;;;5025515;28;20035;-49
2023/10/27 09:05:55;;;;;;;;;;;;;;;;;;5028808;28;19932;-51
2023/10/27 09:08:21;;;;;;;;;;;;;;;;;;5028413;28;19924;-49
2023/10/27 09:10:47;;;;;;;;;;;;;;;;;;5028996;28;19929;-49
2023/10/27 09:13:12;;;;;;;;;;;;;;;;;;5028856;28;19927;-49
2023/10/27 09:15:38;;;;;;;;;;;;;;;;;;5028111;28;19928;-49
2023/10/27 09:18:03;;;;;;;;;;;;;;;;;;5028574;28;19983;-50
2023/10/27 09:20:28;;;;;;;;;;;;;;;;;;5028412;28;19924;-50
2023/10/27 09:22:54;;;;;;;;;;;;;;;;;;5028026;28;20620;-56
2023/10/27 09:25:19;;;;;;;;;;;;;;;;;;5029153;28;19925;-50
2023/10/27 09:27:45;;;;;;;;;;;;;;;;;;5028595;28;19920;-50
2023/10/27 09:30:12;;;;;;;;;;;;;;;;;;5029484;28;19932;-50
2023/10/27 09:32:38;;;;;;;;;;;;;;;;;;5026032;28;19920;-50
2023/10/27 09:35:03;;;;;;;;;;;;;;;;;;5028999;28;19960;-51
2023/10/27 09:37:29;;;;;;;;;;;;;;;;;;5027621;28;20423;-52
2023/10/27 09:39:55;;;;;;;;;;;;;;;;;;5028225;28;19921;-54
2023/10/27 09:42:20;;;;;;;;;;;;;;;;;;5028188;28;19924;-54
2023/10/27 09:44:45;;;;;;;;;;;;;;;;;;5031822;28;20134;-49
2023/10/27 09:47:11;;;;;;;;;;;;;;;;;;5032840;28;20691;-50
2023/10/27 09:49:36;;;;;;;;;;;;;;;;;;5032591;28;19924;-49
2023/10/27 09:52:02;;;;;;;;;;;;;;;;;;5032607;28;20066;-51
2023/10/27 09:54:27;;;;;;;;;;;;;;;;;;5031394;28;19979;-50
2023/10/27 09:56:53;;;;;;;;;;;;;;;;;;5031583;28;19929;-51
2023/10/27 09:59:18;;;;;;;;;;;;;;;;;;5032643;28;19925;-48
2023/10/27 10:01:44;;;;;;;;;;;;;;;;;;5030458;28;19921;-49
2023/10/27 10:04:10;;;;;;;;;;;;;;;;;;5032072;28;19932;-48
2023/10/27 10:06:35;;;;;;;;;;;;;;;;;;5031574;28;20306;-50
2023/10/27 10:09:01;;;;;;;;;;;;;;;;;;5032158;28;20400;-48
2023/10/27 10:11:26;;;;;;;;;;;;;;;;;;5021568;28;19921;-49
2023/10/27 10:13:52;;;;;;;;;;;;;;;;;;5047278;28;19971;-49
2023/10/27 10:16:17;;;;;;;;;;;;;;;;;;5031804;28;19940;-50
2023/10/27 10:18:44;;;;;;;;;;;;;;;;;;5030946;28;19921;-51
2023/10/27 10:21:09;;;;;;;;;;;;;;;;;;5031456;28;20014;-54
2023/10/27 10:23:35;;;;;;;;;;;;;;;;;;5030778;28;20534;-51
2023/10/27 10:26:00;;;;;;;;;;;;;;;;;;5031919;28;20063;-51
2023/10/27 10:28:25;;;;;;;;;;;;;;;;;;5031187;28;20608;-54
2023/10/27 10:30:51;;;;;;;;;;;;;;;;;;5032133;28;20512;-55
2023/10/27 10:33:16;;;;;;;;;;;;;;;;;;5031942;28;20280;-56
2023/10/27 10:35:42;;;;;;;;;;;;;;;;;;5031378;28;19948;-55
2023/10/27 10:38:07;;;;;;;;;;;;;;;;;;5030349;28;20704;-55
2023/10/27 10:40:33;;;;;;;;;;;;;;;;;;5030547;28;20626;-53
2023/10/27 10:42:59;;;;;;;;;;;;;;;;;;5031473;28;20402;-53
2023/10/27 10:45:24;;;;;;;;;;;;;;;;;;5031384;28;20019;-55
2023/10/27 10:47:50;;;;;;;;;;;;;;;;;;5031883;28;19921;-55
2023/10/27 10:50:15;;;;;;;;;;;;;;;;;;5031265;28;19924;-53
2023/10/27 10:52:40;;;;;;;;;;;;;;;;;;5030033;28;19928;-53
2023/10/27 10:55:09;;;;;;;;;;;;;;;;;;5031629;28;20247;-53
2023/10/27 10:57:34;;;;;;;;;;;;;;;;;;5031079;28;19933;-53
2023/10/27 10:59:59;;;;;;;;;;;;;;;;;;5045822;28;19956;-48
2023/10/27 11:02:25;;;;;;;;;;;;;;;;;;5030312;28;19925;-49
2023/10/27 11:04:51;;;;;;;;;;;;;;;;;;5030767;28;20023;-45
2023/10/27 11:07:18;;;;;;;;;;;;;;;;;;5032073;28;19924;-47
2023/10/27 11:09:43;;;;;;;;;;;;;;;;;;5031438;28;20613;-46
2023/10/27 11:12:09;;;;;;;;;;;;;;;;;;5030742;28;19939;-50
2023/10/27 11:14:34;;;;;;;;;;;;;;;;;;5037195;28;20163;-48
2023/10/27 11:17:00;;;;;;;;;;;;;;;;;;5044322;28;20453;-48
2023/10/27 11:19:25;;;;;;;;;;;;;;;;;;5030036;28;20516;-50
2023/10/27 11:21:51;;;;;;;;;;;;;;;;;;5030488;28;19932;-49
2023/10/27 11:24:16;;;;;;;;;;;;;;;;;;5030675;28;19928;-49
2023/10/27 11:26:41;;;;;;;;;;;;;;;;;;5029833;28;19925;-46
2023/10/27 11:29:07;;;;;;;;;;;;;;;;;;5031073;28;19971;-48
2023/10/27 11:31:35;;;;;;;;;;;;;;;;;;5029464;28;19979;-48
2023/10/27 11:34:00;;;;;;;;;;;;;;;;;;5030842;28;19932;-47
2023/10/27 11:36:26;;;;;;;;;;;;;;;;;;5030212;28;20392;-47
2023/10/27 11:38:51;;;;;;;;;;;;;;;;;;5030480;28;20006;-50
2023/10/27 11:41:17;;;;;;;;;;;;;;;;;;5028224;28;19997;-48
2023/10/27 11:43:43;;;;;;;;;;;;;;;;;;5029452;28;19967;-47
2023/10/27 11:46:08;;;;;;;;;;;;;;;;;;5030512;28;20031;-49
2023/10/27 11:48:34;;;;;;;;;;;;;;;;;;5029638;28;19925;-47
2023/10/27 11:50:59;;;;;;;;;;;;;;;;;;5029510;28;20355;-46
2023/10/27 11:53:24;;;;;;;;;;;;;;;;;;5028973;28;20356;-45
2023/10/27 11:55:50;;;;;;;;;;;;;;;;;;5029447;28;20040;-45
2023/10/27 11:58:15;;;;;;;;;;;;;;;;;;5030217;28;19982;-46
2023/10/27 12:00:41;;;;;;;;;;;;;;;;;;5029160;28;20397;-48
2023/10/27 12:03:06;;;;;;;;;;;;;;;;;;5029030;28;19959;-50
2023/10/27 12:05:32;;;;;;;;;;;;;;;;;;5026765;28;20747;-49
2023/10/27 12:07:57;;;;;;;;;;;;;;;;;;5029918;28;20280;-48
2023/10/27 12:10:22;;;;;;;;;;;;;;;;;;5029519;28;19924;-49
2023/10/27 12:12:48;;;;;;;;;;;;;;;;;;5029543;28;19925;-47
2023/10/27 12:15:14;;;;;;;;;;;;;;;;;;5029356;28;20360;-50
2023/10/27 12:17:40;;;;;;;;;;;;;;;;;;5029036;28;20382;-48
2023/10/27 12:20:06;;;;;;;;;;;;;;;;;;5030375;28;19932;-49
2023/10/27 12:22:32;;;;;;;;;;;;;;;;;;5028499;28;19958;-47
2023/10/27 12:24:57;;;;;;;;;;;;;;;;;;5029322;28;19929;-48
2023/10/27 12:27:23;;;;;;;;;;;;;;;;;;5029178;28;20009;-46
2023/10/27 12:29:48;;;;;;;;;;;;;;;;;;5029492;28;19925;-47
2023/10/27 12:32:14;;;;;;;;;;;;;;;;;;5028676;28;19932;-46
2023/10/27 12:34:40;;;;;;;;;;;;;;;;;;5027878;28;20380;-47
2023/10/27 12:37:07;;;;;;;;;;;;;;;;;;5028191;28;20318;-47
2023/10/27 12:39:33;;;;;;;;;;;;;;;;;;5027694;28;19996;-49
2023/10/27 12:41:58;;;;;;;;;;;;;;;;;;5028766;28;20289;-48
2023/10/27 12:44:24;;;;;;;;;;;;;;;;;;5026185;28;19920;-47
2023/10/27 12:46:50;;;;;;;;;;;;;;;;;;5029271;28;19925;-48
2023/10/27 12:49:16;;;;;;;;;;;;;;;;;;5027650;28;20573;-49
2023/10/27 12:51:41;;;;;;;;;;;;;;;;;;5027956;28;19921;-52
2023/10/27 12:54:08;;;;;;;;;;;;;;;;;;5028141;28;19968;-50
2023/10/27 12:56:33;;;;;;;;;;;;;;;;;;5028217;28;20344;-50
2023/10/27 12:58:59;;;;;;;;;;;;;;;;;;5029312;28;19924;-45
2023/10/27 13:01:25;;;;;;;;;;;;;;;;;;5028096;28;20019;-46
2023/10/27 13:03:50;;;;;;;;;;;;;;;;;;5028922;28;20019;-48
2023/10/27 13:06:16;;;;;;;;;;;;;;;;;;5029660;28;21621;-59
2023/10/27 13:08:41;;;;;;;;;;;;;;;;;;5029089;28;20365;-46
2023/10/27 13:11:08;;;;;;;;;;;;;;;;;;5028886;28;20192;-47
2023/10/27 13:13:34;;;;;;;;;;;;;;;;;;5028117;28;19924;-45
2023/10/27 13:15:59;;;;;;;;;;;;;;;;;;5028671;28;20042;-47
2023/10/27 13:18:26;;;;;;;;;;;;;;;;;;5029238;28;19929;-47
2023/10/27 13:20:51;;;;;;;;;;;;;;;;;;5032959;28;19928;-46
2023/10/27 13:23:17;;;;;;;;;;;;;;;;;;5031914;28;20383;-52
2023/10/27 13:25:44;;;;;;;;;;;;;;;;;;5032312;28;19989;-47
2023/10/27 13:28:10;;;;;;;;;;;;;;;;;;5032255;28;20011;-48
2023/10/27 13:30:37;;;;;;;;;;;;;;;;;;5032732;28;19925;-50
2023/10/27 13:33:02;;;;;;;;;;;;;;;;;;5032764;28;20304;-47
2023/10/27 13:35:28;;;;;;;;;;;;;;;;;;5032736;28;19925;-47
2023/10/27 13:37:57;;;;;;;;;;;;;;;;;;5032414;28;19935;-46
2023/10/27 13:40:23;;;;;;;;;;;;;;;;;;5031160;28;19921;-48
2023/10/27 13:42:48;;;;;;;;;;;;;;;;;;5032879;28;19925;-46
2023/10/27 13:45:14;;;;;;;;;;;;;;;;;;5032455;28;19927;-47
2023/10/27 13:47:40;;;;;;;;;;;;;;;;;;5031938;28;19921;-46
2023/10/27 13:50:07;;;;;;;;;;;;;;;;;;5047207;28;19920;-46
2023/10/27 13:52:32;;;;;;;;;;;;;;;;;;5031153;28;19924;-46
2023/10/27 13:54:59;;;;;;;;;;;;;;;;;;5031402;28;19925;-46
2023/10/27 13:57:25;;;;;;;;;;;;;;;;;;5031278;28;19974;-45
2023/10/27 13:59:50;;;;;;;;;;;;;;;;;;5031922;28;20012;-46
2023/10/27 14:02:16;;;;;;;;;;;;;;;;;;5031090;28;19921;-43
2023/10/27 14:04:41;;;;;;;;;;;;;;;;;;5031925;28;19925;-46
2023/10/27 14:07:07;;;;;;;;;;;;;;;;;;5032186;28;20836;-46
2023/10/27 14:09:32;;;;;;;;;;;;;;;;;;5031495;28;20483;-48
2023/10/27 14:11:59;;;;;;;;;;;;;;;;;;5031299;28;19925;-46
2023/10/27 14:14:24;;;;;;;;;;;;;;;;;;5030770;28;19994;-46
2023/10/27 14:16:50;;;;;;;;;;;;;;;;;;5032688;28;19942;-48
2023/10/27 14:19:15;;;;;;;;;;;;;;;;;;5032578;28;20309;-47
2023/10/27 14:21:41;;;;;;;;;;;;;;;;;;5030648;28;19931;-48
2023/10/27 14:24:07;;;;;;;;;;;;;;;;;;5031711;28;19925;-47
2023/10/27 14:26:32;;;;;;;;;;;;;;;;;;5031510;28;19920;-47
2023/10/27 14:29:02;;;;;;;;;;;;;;;;;;5030920;28;20531;-46
2023/10/27 14:31:27;;;;;;;;;;;;;;;;;;5030423;28;20534;-47
2023/10/27 14:33:54;;;;;;;;;;;;;;;;;;5032052;28;19921;-47
2023/10/27 14:36:20;;;;;;;;;;;;;;;;;;5031306;28;20002;-46
2023/10/27 14:38:45;;;;;;;;;;;;;;;;;;5030460;28;19925;-50
2023/10/27 14:41:11;;;;;;;;;;;;;;;;;;5031016;28;19956;-48
2023/10/27 14:43:37;;;;;;;;;;;;;;;;;;5030693;28;20387;-46
2023/10/27 14:46:02;;;;;;;;;;;;;;;;;;5031260;28;19925;-48
2023/10/27 14:48:31;;;;;;;;;;;;;;;;;;5031211;28;20647;-47
2023/10/27 14:50:56;;;;;;;;;;;;;;;;;;5030481;28;19999;-47
2023/10/27 14:53:21;;;;;;;;;;;;;;;;;;5030359;28;20432;-47
2023/10/27 14:55:47;;;;;;;;;;;;;;;;;;5031441;28;20048;-47
2023/10/27 14:58:12;;;;;;;;;;;;;;;;;;5031535;28;20415;-49
2023/10/27 15:00:38;;;;;;;;;;;;;;;;;;5029839;28;19925;-47
2023/10/27 15:03:03;;;;;;;;;;;;;;;;;;5032558;28;20258;-47
2023/10/27 15:05:28;;;;;;;;;;;;;;;;;;5031942;28;20392;-49
2023/10/27 15:07:54;;;;;;;;;;;;;;;;;;5031589;28;19932;-46
2023/10/27 15:10:19;;;;;;;;;;;;;;;;;;5032219;28;20432;-46
2023/10/27 15:12:45;;;;;;;;;;;;;;;;;;5031306;28;20302;-46
2023/10/27 15:15:10;;;;;;;;;;;;;;;;;;5028632;28;19920;-48
2023/10/27 15:17:36;;;;;;;;;;;;;;;;;;5030744;28;19933;-48
2023/10/27 15:20:02;;;;;;;;;;;;;;;;;;5031425;28;20401;-47
2023/10/27 15:22:28;;;;;;;;;;;;;;;;;;5029736;28;19998;-46
2023/10/27 15:24:54;;;;;;;;;;;;;;;;;;5031185;28;19966;-46
2023/10/27 15:27:19;;;;;;;;;;;;;;;;;;5031619;28;19931;-46
2023/10/27 15:29:45;;;;;;;;;;;;;;;;;;5030819;28;20293;-47
2023/10/27 15:32:12;;;;;;;;;;;;;;;;;;5031302;28;20341;-47
2023/10/27 15:34:37;;;;;;;;;;;;;;;;;;5031393;28;20050;-48
2023/10/27 15:37:03;;;;;;;;;;;;;;;;;;5030474;28;19929;-48
2023/10/27 15:39:28;;;;;;;;;;;;;;;;;;5029898;28;19925;-47
2023/10/27 15:41:57;;;;;;;;;;;;;;;;;;5029346;28;19927;-48
2023/10/27 15:44:22;;;;;;;;;;;;;;;;;;5029728;28;19974;-47
2023/10/27 15:46:48;;;;;;;;;;;;;;;;;;5030373;28;19924;-47
2023/10/27 15:49:13;;;;;;;;;;;;;;;;;;5030583;28;19925;-46
2023/10/27 15:51:39;;;;;;;;;;;;;;;;;;5028712;28;19925;-48
2023/10/27 15:54:04;;;;;;;;;;;;;;;;;;5030037;28;19924;-47
2023/10/27 15:56:29;;;;;;;;;;;;;;;;;;5029268;28;20015;-46
2023/10/27 15:58:55;;;;;;;;;;;;;;;;;;5029817;28;20007;-48
2023/10/27 16:01:20;;;;;;;;;;;;;;;;;;5029729;28;20197;-47
2023/10/27 16:03:46;;;;;;;;;;;;;;;;;;5029238;28;20553;-46
2023/10/27 16:06:11;;;;;;;;;;;;;;;;;;5030707;28;19924;-48
2023/10/27 16:08:36;;;;;;;;;;;;;;;;;;5026774;28;19986;-47
2023/10/27 16:11:02;;;;;;;;;;;;;;;;;;5030312;28;19921;-48
2023/10/27 16:13:27;;;;;;;;;;;;;;;;;;5027466;28;20460;-46
2023/10/27 16:15:53;;;;;;;;;;;;;;;;;;5029835;28;20003;-47
2023/10/27 16:18:21;;;;;;;;;;;;;;;;;;5030021;28;20588;-48
2023/10/27 16:20:46;;;;;;;;;;;;;;;;;;5028602;28;20365;-46
2023/10/27 16:23:12;;;;;;;;;;;;;;;;;;5029443;28;19932;-46
2023/10/27 16:25:38;;;;;;;;;;;;;;;;;;5028873;28;20757;-46
2023/10/27 16:28:03;;;;;;;;;;;;;;;;;;5029168;28;19935;-46
2023/10/27 16:30:30;;;;;;;;;;;;;;;;;;5028563;28;19968;-47
2023/10/27 16:32:56;;;;;;;;;;;;;;;;;;5029586;28;19963;-46
2023/10/27 16:35:22;;;;;;;;;;;;;;;;;;5029526;28;19931;-46
2023/10/27 16:37:47;;;;;;;;;;;;;;;;;;5028648;28;19939;-46
2023/10/27 16:40:12;;;;;;;;;;;;;;;;;;5029323;28;19921;-47
2023/10/27 16:42:38;;;;;;;;;;;;;;;;;;5028132;28;19925;-46
2023/10/27 16:45:03;;;;;;;;;;;;;;;;;;5028832;28;20011;-46
2023/10/27 16:47:29;;;;;;;;;;;;;;;;;;5028480;28;19935;-46
2023/10/27 16:49:55;;;;;;;;;;;;;;;;;;5029324;28;20015;-46
2023/10/27 16:52:21;;;;;;;;;;;;;;;;;;5028212;28;19931;-46
2023/10/27 16:54:46;;;;;;;;;;;;;;;;;;5028556;28;19975;-46
2023/10/27 16:57:13;;;;;;;;;;;;;;;;;;5028160;28;19932;-46
2023/10/27 16:59:39;;;;;;;;;;;;;;;;;;5028446;28;20414;-47
2023/10/27 17:02:09;;;;;;;;;;;;;;;;;;5028878;28;20446;-48
2023/10/27 17:04:35;;;;;;;;;;;;;;;;;;5028518;28;20402;-47
2023/10/27 17:07:00;;;;;;;;;;;;;;;;;;5029517;28;19925;-47
2023/10/27 17:09:25;;;;;;;;;;;;;;;;;;5029097;28;19929;-47
2023/10/27 17:11:53;;;;;;;;;;;;;;;;;;5030458;28;19921;-47
2023/10/27 17:14:19;;;;;;;;;;;;;;;;;;5027846;28;19929;-49
2023/10/27 17:16:44;;;;;;;;;;;;;;;;;;5028921;28;19932;-46
2023/10/27 17:19:10;;;;;;;;;;;;;;;;;;5029526;28;19924;-47
2023/10/27 17:21:57;;;;;;;;;;;;;;;;;;5026514;28;20397;-47
2023/10/27 17:24:22;;;;;;;;;;;;;;;;;;5025744;28;19925;-48
2023/10/27 17:26:48;;;;;;;;;;;;;;;;;;5027917;28;20162;-47
2023/10/27 17:29:14;;;;;;;;;;;;;;;;;;5027763;28;20282;-46
2023/10/27 17:31:39;;;;;;;;;;;;;;;;;;5026112;28;19921;-46
2023/10/27 17:34:05;;;;;;;;;;;;;;;;;;5027758;28;19925;-46
2023/10/27 17:36:35;;;;;;;;;;;;;;;;;;5026555;28;20652;-49
2023/10/27 17:39:01;;;;;;;;;;;;;;;;;;5027028;28;20199;-48
2023/10/27 17:41:28;;;;;;;;;;;;;;;;;;5026059;28;20075;-48
2023/10/27 17:43:54;;;;;;;;;;;;;;;;;;5026697;28;19928;-46
2023/10/27 17:46:20;;;;;;;;;;;;;;;;;;5026346;28;19921;-46
2023/10/27 17:48:46;;;;;;;;;;;;;;;;;;5005179;28;20024;-46
2023/10/27 17:51:11;;;;;;;;;;;;;;;;;;5006361;28;19932;-48
2023/10/27 17:53:38;;;;;;;;;;;;;;;;;;5005577;28;19949;-48
2023/10/27 17:56:03;;;;;;;;;;;;;;;;;;5006218;28;19925;-48
2023/10/27 17:58:31;;;;;;;;;;;;;;;;;;5005840;28;19929;-47
2023/10/27 18:00:56;;;;;;;;;;;;;;;;;;5027962;28;19921;-47
2023/10/27 18:03:23;;;;;;;;;;;;;;;;;;5027506;28;19932;-48
2023/10/27 18:05:48;;;;;;;;;;;;;;;;;;5032862;28;20010;-47
2023/10/27 18:08:14;;;;;;;;;;;;;;;;;;5032079;28;19921;-44
2023/10/27 18:10:39;;;;;;;;;;;;;;;;;;5031342;28;19991;-46
2023/10/27 18:13:04;;;;;;;;;;;;;;;;;;5030994;28;20329;-45
2023/10/27 18:15:30;;;;;;;;;;;;;;;;;;5031084;28;20494;-45
2023/10/27 18:17:55;;;;;;;;;;;;;;;;;;5032175;28;19933;-44
2023/10/27 18:20:21;;;;;;;;;;;;;;;;;;5030904;28;19932;-44
2023/10/27 18:22:47;;;;;;;;;;;;;;;;;;5030644;28;19936;-44
2023/10/27 18:25:12;;;;;;;;;;;;;;;;;;5031322;28;19928;-44
2023/10/27 18:27:38;;;;;;;;;;;;;;;;;;5031552;28;19942;-45
2023/10/27 18:30:03;;;;;;;;;;;;;;;;;;5031269;28;19924;-44
2023/10/27 18:32:29;;;;;;;;;;;;;;;;;;5030144;28;19931;-43
2023/10/27 18:34:56;;;;;;;;;;;;;;;;;;5031532;28;19924;-43
2023/10/27 18:37:22;;;;;;;;;;;;;;;;;;5030492;28;19936;-45
2023/10/27 18:39:47;;;;;;;;;;;;;;;;;;5031558;28;19986;-46
2023/10/27 18:42:12;;;;;;;;;;;;;;;;;;5031048;28;19921;-46
2023/10/27 18:44:40;;;;;;;;;;;;;;;;;;5030049;28;19925;-45
2023/10/27 18:47:06;;;;;;;;;;;;;;;;;;5031125;28;19925;-44
2023/10/27 18:49:32;;;;;;;;;;;;;;;;;;5030005;28;19925;-44
2023/10/27 18:51:57;;;;;;;;;;;;;;;;;;5030884;28;19925;-46
2023/10/27 18:54:23;;;;;;;;;;;;;;;;;;5030191;28;19947;-45
2023/10/27 18:56:49;;;;;;;;;;;;;;;;;;5031163;28;20321;-45
2023/10/27 18:59:16;;;;;;;;;;;;;;;;;;5031650;28;19927;-45
2023/10/27 19:01:41;;;;;;;;;;;;;;;;;;5029832;28;20263;-45
2023/10/27 19:04:09;;;;;;;;;;;;;;;;;;5031589;28;19925;-46
2023/10/27 19:06:35;;;;;;;;;;;;;;;;;;5030498;28;20047;-45
2023/10/27 19:09:00;;;;;;;;;;;;;;;;;;5030572;28;20717;-45
2023/10/27 19:11:26;;;;;;;;;;;;;;;;;;5031311;28;19932;-44
2023/10/27 19:13:51;;;;;;;;;;;;;;;;;;5028625;28;20373;-46
2023/10/27 19:16:17;;;;;;;;;;;;;;;;;;5031115;28;20031;-45
2023/10/27 19:18:43;;;;;;;;;;;;;;;;;;5029896;28;19935;-45
2023/10/27 19:21:09;;;;;;;;;;;;;;;;;;5029480;28;19920;-45
2023/10/27 19:23:35;;;;;;;;;;;;;;;;;;5030110;28;20558;-47
2023/10/27 19:26:00;;;;;;;;;;;;;;;;;;5030378;28;19947;-45
2023/10/27 19:28:26;;;;;;;;;;;;;;;;;;5029715;28;20002;-45
2023/10/27 19:30:52;;;;;;;;;;;;;;;;;;5029890;28;20454;-46
2023/10/27 19:33:17;;;;;;;;;;;;;;;;;;5031034;28;21471;-46
2023/10/27 19:35:43;;;;;;;;;;;;;;;;;;5028911;28;20008;-45
2023/10/27 19:38:08;;;;;;;;;;;;;;;;;;5030763;28;21397;-45
2023/10/27 19:40:34;;;;;;;;;;;;;;;;;;5029150;28;20525;-46
2023/10/27 19:43:00;;;;;;;;;;;;;;;;;;5030004;28;20696;-45
2023/10/27 19:45:27;;;;;;;;;;;;;;;;;;5030121;28;19969;-45
2023/10/27 19:47:52;;;;;;;;;;;;;;;;;;5029254;28;20365;-45
2023/10/27 19:50:21;;;;;;;;;;;;;;;;;;5028536;28;20595;-46
2023/10/27 19:52:47;;;;;;;;;;;;;;;;;;5028432;28;20410;-47
2023/10/27 19:55:15;;;;;;;;;;;;;;;;;;5030039;28;21229;-47
2023/10/27 19:57:40;;;;;;;;;;;;;;;;;;5029241;28;19933;-48
2023/10/27 20:00:06;;;;;;;;;;;;;;;;;;5029571;28;19987;-48
2023/10/27 20:02:31;;;;;;;;;;;;;;;;;;5029321;28;19933;-46
2023/10/27 20:04:57;;;;;;;;;;;;;;;;;;5029515;28;20031;-48
2023/10/27 20:07:22;;;;;;;;;;;;;;;;;;5029434;28;20711;-49
2023/10/27 20:09:47;;;;;;;;;;;;;;;;;;5030153;28;19920;-47
2023/10/27 20:12:15;;;;;;;;;;;;;;;;;;5030326;28;19932;-47
2023/10/27 20:14:40;;;;;;;;;;;;;;;;;;5029319;28;19928;-46
2023/10/27 20:17:07;;;;;;;;;;;;;;;;;;5030022;28;19980;-46
2023/10/27 20:19:32;;;;;;;;;;;;;;;;;;5029076;28;20517;-47
2023/10/27 20:21:58;;;;;;;;;;;;;;;;;;5028384;28;20365;-46
2023/10/27 20:24:23;;;;;;;;;;;;;;;;;;5028344;28;19925;-45
2023/10/27 20:26:49;;;;;;;;;;;;;;;;;;5028076;28;20283;-46
2023/10/27 20:29:15;;;;;;;;;;;;;;;;;;5029012;28;20510;-45
2023/10/27 20:31:40;;;;;;;;;;;;;;;;;;5027196;28;20029;-46
2023/10/27 20:34:07;;;;;;;;;;;;;;;;;;5027575;28;19925;-45
2023/10/27 20:36:32;;;;;;;;;;;;;;;;;;5025975;28;19925;-46